Latest Coastal Weather Observations for Kalumburu

IDW60701

Issued at 8:13 pm WST Monday 26 September 2016 (issued every 10 minutes, with the page automatically refreshed every 10 minutes)

About coastal observations | Map of coastal stations | Coastal observations for WA | Marine services | Other Formats
Station Details ID: 001019 Name: KALUMBURU Lat: -14.30 Lon: 126.65 Height: 23.0 m
Data from the previous 72 hours. | See also: Recent months at Kalumburu
Date/Time
WST
Temp
°C
Wind Pressure Rain since
9am
mm
Weather Cloud Vis
km
Sea
Height
m
Swell
Dir  Spd
kts
Gust
kts
hPa Trend Height
m
Period
s
Dir
26/08:00pm 29.5 NNW 3 5 1010.4 - 0.0 - - - - - - -
26/07:30pm 30.5 NW 5 8 1009.9 - 0.0 - - - - - - -
26/07:00pm 31.0 NW 5 8 1009.5 - 0.0 - - - - - - -
26/06:30pm 31.7 NW 7 12 1009.1 - 0.0 - - - - - - -
26/06:00pm 32.3 NW 7 11 1008.6 - 0.0 - - - - - - -
26/05:30pm 33.2 NW 7 11 1008.1 - 0.0 - - - - - - -
26/05:00pm 34.1 NNW 9 12 1007.5 - 0.0 - - - - - - -
26/04:30pm 35.2 N 10 15 1006.9 - 0.0 - - - - - - -
26/04:00pm 36.3 N 12 16 1006.5 - 0.0 - - - - - - -
26/03:30pm 37.0 N 13 18 1006.3 - 0.0 - - - - - - -
26/03:00pm 37.1 NNW 12 19 1006.4 - 0.0 - - - - - - -
26/02:30pm 37.1 NNW 13 19 1006.4 - 0.0 - - - - - - -
26/02:00pm 37.9 N 13 17 1006.4 - 0.0 - - - - - - -
26/01:30pm 38.7 NNW 12 17 1006.4 - 0.0 - - - - - - -
26/01:00pm 38.2 N 12 19 1006.6 - 0.0 - - - - - - -
26/12:30pm 39.1 NNW 11 16 1006.9 - 0.0 - - - - - - -
26/12:00pm 38.1 NNW 9 14 1007.4 - 0.0 - - - - - - -
26/11:30am 38.1 NNW 10 15 1007.9 - 0.0 - - - - - - -
26/11:00am 37.5 NNE 7 10 1008.4 - 0.0 - - - - - - -
26/10:30am 37.4 NNW 4 7 1008.9 - 0.0 - - - - - - -
26/10:00am 37.2 NW 4 5 1009.3 - 0.0 - - - - - - -
26/09:30am 35.7 SSE 4 6 1009.8 - 0.0 - - - - - - -
26/09:00am 34.7 SSE 4 7 1010.0 - 0.0 - - - - - - -
26/08:30am 33.0 SSE 5 7 1010.0 - 0.0 - - - - - - -
26/08:00am 31.4 SSW 3 5 1010.1 - 0.0 - - - - - - -
26/07:30am 29.9 SSE 4 5 1010.2 - 0.0 - - - - - - -
26/07:00am 28.0 S 1 4 1010.0 - 0.0 - - - - - - -
26/06:30am 25.8 CALM 0 0 1009.9 - 0.0 - - - - - - -
26/06:00am 23.0 CALM 0 0 1009.4 - 0.0 - - - - - - -
26/05:30am 22.5 CALM 0 0 1009.0 - 0.0 - - - - - - -
26/05:00am 22.4 CALM 0 0 1008.6 - 0.0 - - - - - - -
26/04:30am 22.5 S 1 3 1008.3 - 0.0 - - - - - - -
26/04:00am 22.7 CALM 0 0 1008.1 - 0.0 - - - - - - -
26/03:30am 23.2 CALM 0 0 1007.9 - 0.0 - - - - - - -
26/03:00am 23.5 CALM 0 0 1007.9 - 0.0 - - - - - - -
26/02:30am 23.6 CALM 0 0 1008.0 - 0.0 - - - - - - -
26/02:00am 23.8 CALM 0 0 1008.0 - 0.0 - - - - - - -
26/01:30am 24.1 CALM 0 0 1008.4 - 0.0 - - - - - - -
26/01:00am 24.8 CALM 0 0 1008.7 - 0.0 - - - - - - -
26/12:30am 25.0 NNE 1 3 1009.1 - 0.0 - - - - - - -
26/12:00am 25.7 W 1 3 1009.4 - 0.0 - - - - - - -
 
Date/Time
WST
Temp
°C
Wind Pressure Rain since
9am
mm
Weather Cloud Vis
km
Sea
Height
m
Swell
Dir  Spd
kts
Gust
kts
hPa Trend Height
m
Period
s
Dir
25/11:30pm 25.0 CALM 0 0 1009.8 - 0.0 - - - - - - -
25/11:00pm 25.6 CALM 0 0 1010.0 - 0.0 - - - - - - -
25/10:30pm 26.4 CALM 0 0 1010.2 - 0.0 - - - - - - -
25/10:00pm 26.8 CALM 0 0 1010.3 - 0.0 - - - - - - -
25/09:30pm 27.7 NW 4 6 1010.3 - 0.0 - - - - - - -
25/09:00pm 27.9 NW 4 5 1010.0 - 0.0 - - - - - - -
25/08:30pm 28.1 NNW 4 6 1009.5 - 0.0 - - - - - - -
25/08:00pm 28.5 NNW 4 6 1009.4 - 0.0 - - - - - - -
25/07:30pm 29.0 NNW 5 6 1008.9 - 0.0 - - - - - - -
25/07:00pm 29.5 NNW 4 6 1008.6 - 0.0 - - - - - - -
25/06:30pm 30.2 NW 7 10 1008.1 - 0.0 - - - - - - -
25/06:00pm 30.5 NW 7 11 1007.8 - 0.0 - - - - - - -
25/05:30pm 31.3 NW 8 12 1007.4 - 0.0 - - - - - - -
25/05:00pm 32.6 NW 9 17 1006.9 - 0.0 - - - - - - -
25/04:30pm 34.2 NW 8 13 1006.4 - 0.0 - - - - - - -
25/04:00pm 35.2 NW 10 17 1006.0 - 0.0 - - - - - - -
25/03:30pm 36.4 WNW 10 15 1005.7 - 0.0 - - - - - - -
25/03:00pm 35.7 N 13 19 1005.7 - 0.0 - - - - - - -
25/02:30pm 35.7 NNW 14 18 1005.8 - 0.0 - - - - - - -
25/02:00pm 35.7 NNW 13 17 1005.8 - 0.0 - - - - - - -
25/01:30pm 36.5 N 13 18 1006.1 - 0.0 - - - - - - -
25/01:00pm 37.2 N 11 16 1006.4 - 0.0 - - - - - - -
25/12:30pm 37.9 NNW 11 15 1006.8 - 0.0 - - - - - - -
25/12:00pm 37.2 NW 9 14 1007.3 - 0.0 - - - - - - -
25/11:30am 36.9 N 9 14 1007.8 - 0.0 - - - - - - -
25/11:00am 36.6 NNW 7 12 1008.4 - 0.0 - - - - - - -
25/10:30am 36.4 SW 4 9 1009.0 - 0.0 - - - - - - -
25/10:00am 35.5 SSE 4 7 1009.6 - 0.0 - - - - - - -
25/09:30am 34.3 W 5 7 1010.0 - 0.0 - - - - - - -
25/09:00am 32.3 NW 4 7 1010.3 - 0.0 - - - - - - -
25/08:30am 31.5 NNW 4 7 1010.6 - 0.0 - - - - - - -
25/08:00am 30.5 W 3 6 1010.6 - 0.0 - - - - - - -
25/07:30am 29.5 NNW 4 6 1010.6 - 0.0 - - - - - - -
25/07:00am 28.9 NW 3 7 1010.4 - 0.0 - - - - - - -
25/06:30am 27.5 WNW 4 6 1010.1 - 0.0 - - - - - - -
25/06:00am 24.6 CALM 0 0 1009.6 - 0.0 - - - - - - -
25/05:30am 23.5 CALM 0 0 1009.1 - 0.0 - - - - - - -
25/05:00am 23.6 CALM 0 0 1008.7 - 0.0 - - - - - - -
25/04:30am 23.9 CALM 0 0 1008.5 - 0.0 - - - - - - -
25/04:00am 24.1 CALM 0 0 1008.2 - 0.0 - - - - - - -
25/03:30am 24.5 CALM 0 0 1008.1 - 0.0 - - - - - - -
25/03:00am 24.2 CALM 0 0 1008.2 - 0.0 - - - - - - -
25/02:30am 24.1 CALM 0 0 1008.3 - 0.0 - - - - - - -
25/02:00am 24.3 WSW 2 3 1008.4 - 0.0 - - - - - - -
25/01:30am 23.8 CALM 0 0 1008.4 - 0.0 - - - - - - -
25/01:00am 23.9 CALM 0 0 1008.6 - 0.0 - - - - - - -
25/12:30am 24.4 NW 3 5 1008.5 - 0.0 - - - - - - -
25/12:00am 25.9 NW 3 5 1008.9 - 0.0 - - - - - - -
 
Date/Time
WST
Temp
°C
Wind Pressure Rain since
9am
mm
Weather Cloud Vis
km
Sea
Height
m
Swell
Dir  Spd
kts
Gust
kts
hPa Trend Height
m
Period
s
Dir
24/11:30pm 24.9 NW 3 4 1009.1 - 0.0 - - - - - - -
24/11:00pm 24.9 WNW 3 4 1009.3 - 0.0 - - - - - - -
24/10:30pm 25.6 CALM 0 0 1009.4 - 0.0 - - - - - - -
24/10:00pm 26.3 NW 1 4 1009.7 - 0.0 - - - - - - -
24/09:30pm 27.3 N 3 6 1009.7 - 0.0 - - - - - - -
24/09:00pm 27.5 NW 3 4 1009.7 - 0.0 - - - - - - -
24/08:30pm 28.3 NW 4 5 1009.5 - 0.0 - - - - - - -
24/08:00pm 29.0 WNW 5 8 1009.1 - 0.0 - - - - - - -
24/07:30pm 29.1 NW 4 6 1008.7 - 0.0 - - - - - - -
24/07:00pm 29.7 NW 4 7 1008.4 - 0.0 - - - - - - -
24/06:30pm 30.5 NW 7 10 1007.9 - 0.0 - - - - - - -
24/06:00pm 31.2 WNW 7 14 1007.4 - 0.0 - - - - - - -
24/05:30pm 32.1 NW 9 13 1006.9 - 0.0 - - - - - - -
24/05:00pm 33.3 NW 9 15 1006.4 - 0.0 - - - - - - -
24/04:30pm 34.4 NNW 10 14 1005.8 - 0.0 - - - - - - -
24/04:00pm 35.0 NNW 10 15 1005.5 - 0.0 - - - - - - -
24/03:30pm 35.2 NNW 12 17 1005.4 - 0.0 - - - - - - -
24/03:00pm 35.0 N 14 19 1005.4 - 0.0 - - - - - - -
24/02:30pm 35.4 NNW 13 20 1005.6 - 0.0 - - - - - - -
24/02:00pm 35.8 NNW 13 18 1005.8 - 0.0 - - - - - - -
24/01:30pm 35.8 NNW 11 19 1006.0 - 0.0 - - - - - - -
24/01:00pm 36.4 NW 11 16 1006.3 - 0.0 - - - - - - -
24/12:30pm 36.7 NNW 11 16 1006.7 - 0.0 - - - - - - -
24/12:00pm 36.8 NNW 7 12 1007.1 - 0.0 - - - - - - -
24/11:30am 35.8 SSW 5 8 1007.9 - 0.0 - - - - - - -
24/11:00am 37.2 NNE 4 9 1008.6 - 0.0 - - - - - - -
24/10:30am 35.3 SW 6 11 1009.3 - 0.0 - - - - - - -
24/10:00am 34.7 SSW 5 10 1010.1 - 0.0 - - - - - - -
24/09:30am 33.8 S 6 8 1010.6 - 0.0 - - - - - - -
24/09:00am 32.9 S 5 9 1010.9 - 0.0 - - - - - - -
24/08:30am 32.0 S 4 8 1011.2 - 0.0 - - - - - - -
24/08:00am 30.9 SW 4 5 1011.4 - 0.0 - - - - - - -
24/07:30am 29.6 WSW 4 6 1011.4 - 0.0 - - - - - - -
24/07:00am 28.0 WSW 2 5 1011.3 - 0.0 - - - - - - -
24/06:30am 26.3 S 1 3 1011.0 - 0.0 - - - - - - -
24/06:00am 23.3 CALM 0 0 1010.8 - 0.0 - - - - - - -
24/05:30am 22.9 CALM 0 0 1010.6 - 0.0 - - - - - - -
24/05:00am 22.9 CALM 0 0 1010.2 - 0.0 - - - - - - -
24/04:30am 23.1 CALM 0 0 1009.8 - 0.0 - - - - - - -
24/04:00am 23.4 CALM 0 0 1009.3 - 0.0 - - - - - - -
24/03:30am 23.6 CALM 0 0 1009.1 - 0.0 - - - - - - -
24/03:00am 23.5 S 2 3 1009.0 - 0.0 - - - - - - -
24/02:30am 24.0 CALM 0 0 1008.9 - 0.0 - - - - - - -
24/02:00am 24.4 N 1 4 1008.8 - 0.0 - - - - - - -
24/01:30am 24.7 NNW 2 3 1008.9 - 0.0 - - - - - - -
24/01:00am 25.3 CALM 0 3 1008.9 - 0.0 - - - - - - -
24/12:30am 25.1 CALM 0 0 1009.1 - 0.0 - - - - - - -
24/12:00am 25.6 CALM 0 0 1009.5 - 0.0 - - - - - - -
 
Date/Time
WST
Temp
°C
Wind Pressure Rain since
9am
mm
Weather Cloud Vis
km
Sea
Height
m
Swell
Dir  Spd
kts
Gust
kts
hPa Trend Height
m
Period
s
Dir
23/11:30pm 26.4 W 1 3 1009.7 - 0.0 - - - - - - -
23/11:00pm 27.0 WNW 3 4 1009.8 - 0.0 - - - - - - -
23/10:30pm 27.4 NNW 3 6 1010.1 - 0.0 - - - - - - -
23/10:00pm 27.7 NW 5 8 1010.1 - 0.0 - - - - - - -
23/09:30pm 27.8 NNW 4 6 1010.2 - 0.0 - - - - - - -
23/09:00pm 28.0 NNW 5 7 1009.9 - 0.0 - - - - - - -
23/08:30pm 28.3 NNW 5 8 1009.8 - 0.0 - - - - - - -

Other Formats:

Comma delimited format used in spreadsheet applications
http://www.bom.gov.au/fwo/IDW60701/IDW60701.94100.axf

JavaScript Object Notation format (JSON) in row-major order
http://www.bom.gov.au/fwo/IDW60701/IDW60701.94100.json